Time;durP1;ratioP1;P1;durP2;ratioP2;P2;SDS_P1;SDS_P2;PMS_P1;PMS_P2;Temp;Humidity;BMP_temperature;BMP_pressure;BME280_temperature;BME280_humidity;BME280_pressure;Samples;Min_cycle;Max_cycle;Signal;HPM_P1;HPM_P2
2023/09/12 00:00:47;;;;;;;107.57;57.85;;;21.40;92.90;;;;;;4938340;28;94319;-78
2023/09/12 00:03:13;;;;;;;107.93;58.53;;;21.40;92.50;;;;;;4945715;28;95292;-77
2023/09/12 00:05:39;;;;;;;109.80;58.05;;;21.40;92.30;;;;;;4952148;28;95085;-76
2023/09/12 00:08:05;;;;;;;106.53;58.17;;;21.30;92.00;;;;;;4946074;28;97300;-75
2023/09/12 00:10:30;;;;;;;106.65;57.25;;;21.40;92.40;;;;;;4952406;28;95148;-76
2023/09/12 00:12:56;;;;;;;107.20;58.00;;;21.40;92.70;;;;;;4932183;28;96729;-75
2023/09/12 00:15:22;;;;;;;109.30;59.38;;;21.40;92.00;;;;;;4953057;28;97646;-76
2023/09/12 00:17:50;;;;;;;110.45;59.75;;;21.40;92.30;;;;;;4953803;28;95023;-77
2023/09/12 00:20:16;;;;;;;110.63;60.55;;;21.40;92.20;;;;;;4952477;28;95193;-76
2023/09/12 00:22:42;;;;;;;108.25;58.20;;;21.30;92.00;;;;;;4931025;28;97252;-76
2023/09/12 00:25:08;;;;;;;107.60;58.38;;;21.40;92.30;;;;;;4936734;28;94573;-76
2023/09/12 00:27:33;;;;;;;108.70;58.83;;;21.30;92.20;;;;;;4952765;28;94832;-76
2023/09/12 00:29:59;;;;;;;108.75;58.92;;;21.30;92.00;;;;;;4956311;28;94719;-77
2023/09/12 00:32:24;;;;;;;108.18;58.88;;;21.30;92.10;;;;;;4953064;28;96204;-76
2023/09/12 00:34:50;;;;;;;106.15;57.92;;;21.30;92.30;;;;;;4953467;28;95327;-76
2023/09/12 00:37:15;;;;;;;107.32;58.38;;;21.30;92.30;;;;;;4955313;28;96133;-76
2023/09/12 00:39:41;;;;;;;109.15;59.20;;;21.30;92.30;;;;;;4954145;28;97609;-76
2023/09/12 00:42:07;;;;;;;109.15;59.10;;;21.30;92.10;;;;;;4954751;28;98253;-75
2023/09/12 00:44:33;;;;;;;108.38;59.63;;;21.30;92.10;;;;;;4948036;28;97010;-77
2023/09/12 00:47:01;;;;;;;112.32;60.20;;;21.30;92.20;;;;;;4936721;28;94840;-76
2023/09/12 00:49:27;;;;;;;110.18;60.13;;;21.30;92.10;;;;;;4952281;28;94820;-76
2023/09/12 00:51:56;;;;;;;111.57;60.10;;;21.30;92.10;;;;;;4951676;28;97459;-75
2023/09/12 00:54:22;;;;;;;109.22;59.00;;;21.30;92.00;;;;;;4952824;28;95316;-76
2023/09/12 00:56:49;;;;;;;107.50;58.05;;;21.20;92.10;;;;;;4952942;28;100654;-77
2023/09/12 00:59:18;;;;;;;107.35;58.15;;;21.30;92.20;;;;;;4954430;28;95076;-76
2023/09/12 01:01:44;;;;;;;110.22;59.50;;;21.20;92.10;;;;;;4947715;28;95318;-77
2023/09/12 01:04:10;;;;;;;110.53;60.25;;;21.20;92.20;;;;;;4950082;28;95287;-76
2023/09/12 01:06:37;;;;;;;109.05;59.28;;;21.20;92.10;;;;;;4951585;28;98766;-76
2023/09/12 01:09:02;;;;;;;107.90;58.78;;;21.20;92.10;;;;;;4934821;28;96666;-76
2023/09/12 01:11:28;;;;;;;107.90;58.83;;;21.20;92.30;;;;;;4951007;28;95822;-77
2023/09/12 01:13:54;;;;;;;109.40;59.08;;;21.20;92.40;;;;;;4951854;28;94562;-76
2023/09/12 01:16:19;;;;;;;113.07;61.13;;;21.20;92.20;;;;;;4951043;28;96114;-75
2023/09/12 01:18:45;;;;;;;110.07;58.95;;;21.20;92.20;;;;;;4948599;28;95159;-76
2023/09/12 01:21:36;;;;;;;108.28;58.25;;;21.20;92.30;;;;;;4950643;28;98582;-76
2023/09/12 01:24:23;;;;;;;109.65;59.08;;;21.20;92.20;;;;;;4950509;28;97780;-76
2023/09/12 01:26:52;;;;;;;109.25;58.92;;;21.10;92.30;;;;;;4953221;28;94743;-77
2023/09/12 01:29:21;;;;;;;109.13;59.00;;;21.10;92.40;;;;;;4955975;28;94709;-77
2023/09/12 01:31:49;;;;;;;107.07;58.25;;;21.10;92.50;;;;;;4948174;28;95565;-76
2023/09/12 01:34:14;;;;;;;110.60;60.20;;;21.10;92.70;;;;;;4951310;28;94898;-77
2023/09/12 01:36:40;;;;;;;109.93;59.55;;;21.10;92.30;;;;;;4951313;28;96397;-76
2023/09/12 01:39:06;;;;;;;106.72;57.95;;;21.10;92.20;;;;;;4951098;28;95285;-76
2023/09/12 01:41:35;;;;;;;111.10;60.13;;;21.10;92.20;;;;;;4954485;28;96651;-76
2023/09/12 01:44:02;;;;;;;111.32;60.08;;;21.10;92.40;;;;;;4931515;28;95360;-76
2023/09/12 01:46:31;;;;;;;110.57;61.20;;;21.10;92.20;;;;;;4938224;28;96005;-76
2023/09/12 01:48:58;;;;;;;110.55;59.80;;;21.10;92.30;;;;;;4954472;28;95678;-76
2023/09/12 01:51:24;;;;;;;107.70;57.88;;;21.10;92.40;;;;;;4953226;28;97231;-75
2023/09/12 01:53:50;;;;;;;109.97;58.60;;;21.10;92.30;;;;;;4948021;28;95650;-77
2023/09/12 01:56:18;;;;;;;108.38;58.58;;;21.10;92.60;;;;;;4950771;28;95528;-76
2023/09/12 01:58:44;;;;;;;107.68;58.25;;;21.10;92.30;;;;;;4951740;28;95629;-76
2023/09/12 02:01:11;;;;;;;111.28;59.20;;;21.10;92.40;;;;;;4953795;28;100006;-75
2023/09/12 02:03:37;;;;;;;107.43;58.13;;;21.10;92.10;;;;;;4951108;28;95662;-76
2023/09/12 02:06:02;;;;;;;109.10;59.45;;;21.10;92.30;;;;;;4950037;28;95222;-76
2023/09/12 02:08:28;;;;;;;108.55;58.67;;;21.10;92.20;;;;;;4955150;28;95819;-76
2023/09/12 02:10:54;;;;;;;107.43;58.38;;;21.10;92.40;;;;;;4948323;28;96571;-76
2023/09/12 02:13:20;;;;;;;113.70;61.30;;;21.10;92.40;;;;;;4947636;28;96254;-76
2023/09/12 02:15:45;;;;;;;108.85;58.90;;;21.10;92.30;;;;;;4950887;28;95711;-76
2023/09/12 02:18:11;;;;;;;113.53;61.03;;;21.10;92.20;;;;;;4953154;28;94834;-76
2023/09/12 02:20:39;;;;;;;108.93;58.33;;;21.00;92.20;;;;;;4934772;28;96579;-76
2023/09/12 02:23:05;;;;;;;107.65;58.42;;;21.10;92.30;;;;;;4951055;28;95296;-74
2023/09/12 02:25:30;;;;;;;108.75;58.55;;;21.00;92.50;;;;;;4947757;28;96948;-76
2023/09/12 02:27:56;;;;;;;108.78;58.72;;;21.10;92.40;;;;;;4948699;28;93984;-75
2023/09/12 02:30:22;;;;;;;106.05;57.58;;;21.10;92.50;;;;;;4952067;28;95043;-75
2023/09/12 02:32:47;;;;;;;107.70;58.38;;;21.10;92.40;;;;;;4944610;28;98544;-75
2023/09/12 02:35:13;;;;;;;110.15;59.53;;;21.00;92.40;;;;;;4955318;28;96575;-75
2023/09/12 02:37:38;;;;;;;107.45;58.40;;;21.00;92.30;;;;;;4946269;28;96041;-75
2023/09/12 02:40:10;;;;;;;109.32;58.55;;;21.00;92.40;;;;;;4955956;28;94830;-75
2023/09/12 02:42:36;;;;;;;111.18;59.72;;;21.00;92.40;;;;;;4947980;28;94714;-75
2023/09/12 02:45:01;;;;;;;107.40;58.00;;;21.00;92.50;;;;;;4958390;28;95224;-76
2023/09/12 02:47:27;;;;;;;109.32;60.28;;;21.00;92.50;;;;;;4945779;28;94982;-76
2023/09/12 02:49:55;;;;;;;109.07;58.95;;;21.00;92.30;;;;;;4954449;28;94781;-75
2023/09/12 02:52:21;;;;;;;107.28;57.88;;;21.00;92.20;;;;;;4951394;28;94670;-75
2023/09/12 02:54:46;;;;;;;110.35;60.60;;;21.00;92.50;;;;;;4950800;28;95648;-76
2023/09/12 02:57:12;;;;;;;114.22;63.05;;;21.00;92.40;;;;;;4952036;28;96956;-75
2023/09/12 02:59:37;;;;;;;108.15;58.58;;;21.00;92.30;;;;;;4948730;28;97314;-75
2023/09/12 03:02:03;;;;;;;110.10;59.38;;;21.00;92.40;;;;;;4953006;28;95986;-75
2023/09/12 03:04:29;;;;;;;108.97;59.28;;;21.00;92.40;;;;;;4936317;28;94861;-75
2023/09/12 03:06:55;;;;;;;111.28;60.28;;;21.00;92.40;;;;;;4950434;28;95598;-76
2023/09/12 03:09:22;;;;;;;106.90;58.03;;;21.00;92.30;;;;;;4946829;28;95830;-76
2023/09/12 03:11:49;;;;;;;110.68;59.33;;;21.00;92.60;;;;;;4953675;28;95914;-76
2023/09/12 03:14:14;;;;;;;107.32;57.92;;;20.90;92.40;;;;;;4949154;28;96000;-76
2023/09/12 03:16:40;;;;;;;107.07;57.50;;;20.90;92.20;;;;;;4930844;28;94209;-74
2023/09/12 03:19:05;;;;;;;105.95;57.33;;;21.00;92.40;;;;;;4955515;28;95973;-75
2023/09/12 03:21:31;;;;;;;108.88;58.70;;;21.00;92.40;;;;;;4946903;28;95536;-75
2023/09/12 03:23:57;;;;;;;107.20;58.67;;;21.00;92.40;;;;;;4949195;28;96438;-75
2023/09/12 03:26:22;;;;;;;107.35;58.20;;;20.90;92.50;;;;;;4949992;28;94958;-76
2023/09/12 03:28:52;;;;;;;108.53;59.05;;;21.00;92.60;;;;;;4953115;28;95340;-75
2023/09/12 03:31:18;;;;;;;106.82;57.75;;;21.00;92.40;;;;;;4950830;28;94865;-75
2023/09/12 03:33:49;;;;;;;108.30;58.53;;;20.90;92.40;;;;;;4954156;28;95727;-75
2023/09/12 03:36:15;;;;;;;108.30;58.55;;;20.90;92.80;;;;;;4945154;28;94935;-75
2023/09/12 03:38:40;;;;;;;110.35;59.78;;;20.90;92.30;;;;;;4933200;28;95295;-75
2023/09/12 03:41:06;;;;;;;111.15;60.78;;;20.90;92.40;;;;;;4950432;28;95021;-76
2023/09/12 03:43:33;;;;;;;110.68;59.50;;;20.90;92.50;;;;;;4951796;28;95756;-74
2023/09/12 03:45:58;;;;;;;109.95;59.83;;;20.90;92.30;;;;;;4951316;28;96171;-75
2023/09/12 03:48:24;;;;;;;108.07;58.83;;;20.90;92.50;;;;;;4948923;28;96737;-76
2023/09/12 03:50:50;;;;;;;107.18;58.58;;;20.90;92.50;;;;;;4954811;28;97599;-76
2023/09/12 03:53:16;;;;;;;110.32;59.72;;;20.90;92.60;;;;;;4947535;28;96076;-76
2023/09/12 03:55:42;;;;;;;110.93;58.55;;;20.90;92.60;;;;;;4958782;28;96364;-75
2023/09/12 03:58:07;;;;;;;110.05;60.42;;;20.90;92.80;;;;;;4952146;28;95723;-76
2023/09/12 04:00:33;;;;;;;109.65;59.38;;;20.80;92.50;;;;;;4952869;28;96306;-75
2023/09/12 04:02:59;;;;;;;111.78;60.42;;;20.80;92.40;;;;;;4936486;28;94645;-75
2023/09/12 04:05:26;;;;;;;110.40;59.88;;;20.80;92.60;;;;;;4955168;28;94331;-75
2023/09/12 04:07:51;;;;;;;107.28;58.20;;;20.80;92.50;;;;;;4958916;28;96174;-76
2023/09/12 04:10:19;;;;;;;109.35;59.67;;;20.70;92.70;;;;;;4957476;28;95245;-75
2023/09/12 04:12:44;;;;;;;109.18;59.70;;;20.70;92.80;;;;;;4929978;28;97934;-76
2023/09/12 04:15:10;;;;;;;108.70;59.10;;;20.70;92.60;;;;;;4957668;28;96779;-75
2023/09/12 04:17:35;;;;;;;108.60;59.17;;;20.70;92.70;;;;;;4953858;28;96009;-75
2023/09/12 04:20:01;;;;;;;107.78;58.50;;;20.70;92.80;;;;;;4952446;28;95313;-76
2023/09/12 04:22:28;;;;;;;107.55;57.92;;;20.70;92.70;;;;;;4958440;28;98446;-75
2023/09/12 04:24:54;;;;;;;108.13;58.67;;;20.60;92.50;;;;;;4951827;28;98440;-75
2023/09/12 04:27:19;;;;;;;110.93;60.55;;;20.60;92.80;;;;;;4955103;28;94808;-75
2023/09/12 04:29:45;;;;;;;106.78;58.28;;;20.60;92.70;;;;;;4951054;28;95320;-75
2023/09/12 04:32:11;;;;;;;108.68;58.47;;;20.60;92.90;;;;;;4952394;28;94764;-75
2023/09/12 04:34:36;;;;;;;111.57;60.13;;;20.60;92.90;;;;;;4951960;28;95094;-75
2023/09/12 04:37:02;;;;;;;109.57;59.55;;;20.60;92.80;;;;;;4955291;28;96143;-76
2023/09/12 04:39:28;;;;;;;108.97;59.83;;;20.50;93.10;;;;;;4932181;28;95727;-76
2023/09/12 04:41:54;;;;;;;108.13;58.63;;;20.50;93.00;;;;;;4940993;28;94807;-75
2023/09/12 04:44:19;;;;;;;110.80;60.25;;;20.50;92.80;;;;;;4954248;28;95953;-76
2023/09/12 04:46:46;;;;;;;109.38;59.17;;;20.50;92.80;;;;;;4945673;28;96050;-77
2023/09/12 04:49:11;;;;;;;112.38;59.47;;;20.50;93.10;;;;;;4953700;28;95225;-75
2023/09/12 04:51:37;;;;;;;109.93;58.50;;;20.40;93.20;;;;;;4949506;28;96363;-76
2023/09/12 04:54:04;;;;;;;110.65;59.97;;;20.50;93.10;;;;;;4955475;28;95054;-76
2023/09/12 04:56:30;;;;;;;106.97;57.47;;;20.40;93.10;;;;;;4951148;28;95300;-77
2023/09/12 04:58:55;;;;;;;103.53;56.13;;;20.40;93.60;;;;;;4953368;28;94628;-77
2023/09/12 05:01:21;;;;;;;103.20;55.63;;;20.40;95.90;;;;;;4934041;28;101795;-75
2023/09/12 05:03:46;;;;;;;103.50;55.70;;;20.50;95.80;;;;;;4943951;28;96194;-76
2023/09/12 05:06:13;;;;;;;103.50;55.70;;;20.50;96.00;;;;;;4943101;28;103184;-76
2023/09/12 05:08:38;;;;;;;104.55;55.50;;;20.50;96.00;;;;;;4938381;28;97777;-76
2023/09/12 05:11:04;;;;;;;103.38;55.50;;;20.60;96.20;;;;;;4943722;28;95161;-75
2023/09/12 05:13:30;;;;;;;103.88;56.13;;;20.60;96.10;;;;;;4948561;28;95194;-76
2023/09/12 05:15:59;;;;;;;103.13;55.58;;;20.60;96.10;;;;;;4951007;28;95106;-76
2023/09/12 05:18:24;;;;;;;103.20;55.72;;;20.50;96.20;;;;;;4948200;28;96827;-75
2023/09/12 05:20:50;;;;;;;103.57;55.67;;;20.60;96.20;;;;;;4950254;28;99036;-75
2023/09/12 05:23:16;;;;;;;103.30;55.67;;;20.60;96.20;;;;;;4943423;28;95080;-75
2023/09/12 05:25:41;;;;;;;103.32;55.85;;;20.60;96.20;;;;;;4952103;28;95736;-74
2023/09/12 05:28:07;;;;;;;103.53;55.83;;;20.50;96.30;;;;;;4930304;28;95873;-74
2023/09/12 05:30:33;;;;;;;103.40;55.90;;;20.50;96.40;;;;;;4934226;28;95110;-74
2023/09/12 05:32:59;;;;;;;103.28;55.47;;;20.50;96.50;;;;;;4949860;28;99768;-73
2023/09/12 05:35:24;;;;;;;103.57;56.05;;;20.50;96.50;;;;;;4954297;28;95777;-76
2023/09/12 05:37:50;;;;;;;103.30;55.60;;;20.50;96.60;;;;;;4951956;28;95234;-77
2023/09/12 05:40:16;;;;;;;104.85;56.72;;;20.50;96.60;;;;;;4947484;28;95977;-77
2023/09/12 05:42:42;;;;;;;104.18;56.70;;;20.40;94.80;;;;;;4951994;28;95991;-76
2023/09/12 05:45:07;;;;;;;105.18;57.10;;;20.30;94.40;;;;;;4953436;28;95816;-77
2023/09/12 05:47:33;;;;;;;105.30;56.90;;;20.30;94.60;;;;;;4953679;28;96487;-77
2023/09/12 05:50:00;;;;;;;105.40;57.15;;;20.20;94.50;;;;;;4948590;28;98599;-76
2023/09/12 05:52:26;;;;;;;105.30;57.20;;;20.20;94.50;;;;;;4938441;28;96073;-77
2023/09/12 05:54:51;;;;;;;105.55;57.17;;;20.20;94.80;;;;;;4947755;28;95795;-77
2023/09/12 05:57:17;;;;;;;104.85;56.88;;;20.20;94.60;;;;;;4951387;28;94801;-76
2023/09/12 05:59:43;;;;;;;107.15;57.65;;;20.10;94.50;;;;;;4950798;28;95058;-76
2023/09/12 06:02:09;;;;;;;107.03;58.00;;;20.10;94.50;;;;;;4952949;28;95662;-76
2023/09/12 06:04:35;;;;;;;106.60;57.70;;;20.20;94.50;;;;;;4951313;28;96004;-76
2023/09/12 06:07:02;;;;;;;107.63;58.13;;;20.10;94.20;;;;;;4961927;28;95091;-76
2023/09/12 06:09:28;;;;;;;105.70;57.63;;;20.10;94.10;;;;;;4956266;28;97502;-76
2023/09/12 06:11:54;;;;;;;106.32;58.13;;;20.10;94.40;;;;;;4947352;28;95227;-77
2023/09/12 06:14:20;;;;;;;107.47;58.30;;;20.10;94.70;;;;;;4936442;28;97334;-76
2023/09/12 06:16:45;;;;;;;106.40;57.60;;;20.10;94.00;;;;;;4930177;28;96091;-76
2023/09/12 06:19:11;;;;;;;107.20;57.92;;;20.20;94.20;;;;;;4952466;28;95168;-76
2023/09/12 06:21:37;;;;;;;107.97;57.85;;;20.10;94.60;;;;;;4958931;22;95141;-47
2023/09/12 06:24:21;;;;;;;106.97;57.88;;;20.10;94.40;;;;;;4951748;28;95851;-45
2023/09/12 06:26:47;;;;;;;105.90;57.95;;;20.10;94.60;;;;;;4952797;28;95151;-47
2023/09/12 06:29:14;;;;;;;107.75;58.50;;;20.10;94.00;;;;;;4950073;28;97443;-48
2023/09/12 06:31:41;;;;;;;106.55;56.78;;;20.10;94.60;;;;;;4958529;28;94437;-48
2023/09/12 06:34:07;;;;;;;109.88;58.90;;;20.10;94.60;;;;;;4956443;28;98490;-47
2023/09/12 06:36:33;;;;;;;107.43;58.42;;;20.10;94.00;;;;;;4951359;28;95360;-47
2023/09/12 06:38:59;;;;;;;107.00;58.05;;;20.20;94.30;;;;;;4950593;28;99662;-46
2023/09/12 06:41:25;;;;;;;106.05;57.13;;;20.10;94.10;;;;;;4952032;28;94828;-45
2023/09/12 06:43:50;;;;;;;108.57;58.35;;;20.20;94.40;;;;;;4951637;28;99013;-49
2023/09/12 06:46:19;;;;;;;105.65;57.17;;;20.10;94.30;;;;;;4951817;28;100114;-48
2023/09/12 06:48:45;;;;;;;110.85;60.33;;;20.20;94.90;;;;;;4951071;28;96332;-50
2023/09/12 06:51:12;;;;;;;111.32;60.08;;;20.10;93.80;;;;;;4956413;28;95643;-45
2023/09/12 06:53:38;;;;;;;111.05;60.97;;;20.10;93.80;;;;;;4952735;28;96613;-47
2023/09/12 06:56:06;;;;;;;111.38;60.78;;;20.20;93.40;;;;;;4954197;28;97360;-46
2023/09/12 06:58:32;;;;;;;113.95;61.03;;;20.10;93.70;;;;;;4955104;28;95171;-46
2023/09/12 07:01:05;;;;;;;104.90;56.85;;;20.20;93.60;;;;;;4947625;28;96073;-47
2023/09/12 07:03:34;;;;;;;109.82;59.50;;;20.20;94.30;;;;;;4953088;28;95568;-47
2023/09/12 07:06:00;;;;;;;109.70;59.33;;;20.20;93.90;;;;;;4951475;28;98233;-50
2023/09/12 07:08:26;;;;;;;109.35;59.78;;;20.20;93.60;;;;;;4948779;28;96362;-46
2023/09/12 07:10:54;;;;;;;112.97;61.50;;;20.20;93.40;;;;;;4953341;28;94963;-46
2023/09/12 07:13:21;;;;;;;112.68;61.83;;;20.20;93.10;;;;;;4945456;28;97083;-52
2023/09/12 07:15:47;;;;;;;113.13;60.95;;;20.20;92.90;;;;;;4951294;28;95107;-47
2023/09/12 07:18:14;;;;;;;114.88;62.20;;;20.30;93.30;;;;;;4946605;28;95430;-48
2023/09/12 07:20:40;;;;;;;108.80;58.90;;;20.40;93.20;;;;;;4951486;28;95364;-48
2023/09/12 07:23:07;;;;;;;115.28;62.25;;;20.50;93.40;;;;;;4948245;28;101679;-49
2023/09/12 07:25:38;;;;;;;110.13;60.25;;;20.50;92.50;;;;;;4950310;28;94874;-47
2023/09/12 07:28:04;;;;;;;109.10;58.63;;;20.50;92.50;;;;;;4945269;28;95624;-47
2023/09/12 07:30:30;;;;;;;113.72;61.90;;;20.60;93.20;;;;;;4950821;28;95288;-47
2023/09/12 07:32:55;;;;;;;114.15;61.72;;;20.70;92.40;;;;;;4949043;28;98481;-50
2023/09/12 07:35:23;;;;;;;114.65;62.50;;;20.70;92.10;;;;;;4949517;28;98353;-47
2023/09/12 07:37:49;;;;;;;112.75;61.03;;;20.70;92.20;;;;;;4950434;28;94921;-48
2023/09/12 07:40:15;;;;;;;116.47;62.53;;;20.80;92.00;;;;;;4943453;28;95956;-48
2023/09/12 07:42:41;;;;;;;108.47;58.03;;;20.80;91.70;;;;;;4950796;28;94650;-46
2023/09/12 07:45:07;;;;;;;109.75;59.55;;;20.80;92.20;;;;;;4950298;28;98083;-47
2023/09/12 07:47:33;;;;;;;109.68;59.28;;;20.80;92.50;;;;;;4953385;28;95544;-49
2023/09/12 07:50:00;;;;;;;115.38;62.65;;;20.80;92.20;;;;;;4951842;28;96978;-47
2023/09/12 07:52:26;;;;;;;112.38;60.60;;;20.90;91.90;;;;;;4934726;28;95550;-46
2023/09/12 07:54:58;;;;;;;107.55;57.83;;;20.90;92.00;;;;;;4947091;28;95662;-48
2023/09/12 07:57:24;;;;;;;113.88;61.75;;;20.90;92.20;;;;;;4953433;28;94649;-47
2023/09/12 07:59:49;;;;;;;116.95;62.10;;;20.90;91.90;;;;;;4955054;28;94941;-46
2023/09/12 08:02:15;;;;;;;115.00;60.60;;;20.90;91.70;;;;;;4953860;28;96001;-45
2023/09/12 08:04:40;;;;;;;113.40;60.00;;;20.90;91.80;;;;;;4951875;28;95359;-48
2023/09/12 08:07:06;;;;;;;106.88;57.63;;;20.90;92.00;;;;;;4946136;28;95106;-45
2023/09/12 08:09:55;;;;;;;111.30;59.42;;;21.00;92.40;;;;;;4953935;28;94380;-45
2023/09/12 08:12:23;;;;;;;114.07;60.33;;;21.00;91.60;;;;;;4950207;28;100024;-45
2023/09/12 08:14:48;;;;;;;106.22;57.38;;;21.00;91.50;;;;;;4946548;28;96482;-46
2023/09/12 08:17:15;;;;;;;111.82;59.92;;;21.00;92.20;;;;;;4953815;28;97598;-45
2023/09/12 08:19:41;;;;;;;104.00;56.50;;;21.10;91.60;;;;;;4952679;28;95205;-45
2023/09/12 08:22:08;;;;;;;108.40;58.92;;;21.10;92.10;;;;;;4952284;28;94906;-45
2023/09/12 08:24:34;;;;;;;107.97;58.40;;;21.10;92.00;;;;;;4946178;28;96868;-45
2023/09/12 08:27:00;;;;;;;108.10;58.58;;;21.10;91.90;;;;;;4948724;28;94948;-45
2023/09/12 08:29:27;;;;;;;105.30;56.38;;;21.20;91.50;;;;;;4948122;28;95135;-45
2023/09/12 08:31:53;;;;;;;114.88;61.22;;;21.20;92.30;;;;;;4950355;28;95507;-44
2023/09/12 08:34:19;;;;;;;108.72;58.85;;;21.30;91.10;;;;;;4946147;28;93911;-45
2023/09/12 08:36:45;;;;;;;113.43;60.63;;;21.30;91.20;;;;;;4952164;28;95058;-45
2023/09/12 08:39:14;;;;;;;113.53;61.92;;;21.30;90.90;;;;;;4949111;28;98406;-45
2023/09/12 08:41:40;;;;;;;108.45;58.35;;;21.30;90.70;;;;;;4949556;28;96735;-45
2023/09/12 08:44:06;;;;;;;112.07;60.53;;;21.40;91.20;;;;;;4952899;28;95162;-45
2023/09/12 08:46:32;;;;;;;110.13;59.28;;;21.40;90.80;;;;;;4948933;28;95588;-46
2023/09/12 08:48:58;;;;;;;109.55;59.65;;;21.40;90.90;;;;;;4954611;28;100123;-44
2023/09/12 08:51:24;;;;;;;109.15;58.78;;;21.40;90.80;;;;;;4952486;28;95509;-45
2023/09/12 08:53:51;;;;;;;107.60;58.05;;;21.40;90.80;;;;;;4953373;28;95495;-45
2023/09/12 08:56:18;;;;;;;110.15;59.20;;;21.50;91.00;;;;;;4955706;28;96270;-47
2023/09/12 08:58:43;;;;;;;111.82;59.70;;;21.50;90.50;;;;;;4956066;28;97248;-44
2023/09/12 09:01:15;;;;;;;114.68;61.20;;;21.50;90.50;;;;;;4950414;28;96196;-44
2023/09/12 09:03:43;;;;;;;113.32;60.83;;;21.50;90.30;;;;;;4953385;28;94914;-46
2023/09/12 09:06:10;;;;;;;113.60;61.55;;;21.60;90.30;;;;;;4951529;28;96194;-45
2023/09/12 09:08:36;;;;;;;111.60;60.65;;;21.60;90.20;;;;;;4953920;28;94826;-46
2023/09/12 09:11:03;;;;;;;106.70;57.55;;;21.60;90.50;;;;;;4953235;28;96445;-45
2023/09/12 09:13:29;;;;;;;106.68;57.13;;;21.70;90.40;;;;;;4949101;28;95167;-45
2023/09/12 09:16:18;;;;;;;112.80;60.53;;;21.80;90.60;;;;;;4957640;28;95218;-45
2023/09/12 09:18:54;;;;;;;106.57;56.97;;;21.80;89.70;;;;;;4950831;28;95249;-45
2023/09/12 09:21:25;;;;;;;108.57;58.28;;;21.90;90.40;;;;;;4949804;28;95007;-47
2023/09/12 09:23:52;;;;;;;;;;;22.00;90.20;;;;;;4956562;28;96664;-45
2023/09/12 09:26:18;;;;;;;111.75;59.88;;;22.10;90.00;;;;;;4954285;28;94835;-45
2023/09/12 09:28:44;;;;;;;106.63;57.30;;;22.20;89.00;;;;;;4953977;28;95657;-45
2023/09/12 09:31:11;;;;;;;108.68;57.65;;;22.20;90.50;;;;;;4947905;28;99053;-45
2023/09/12 09:33:38;;;;;;;106.70;56.97;;;22.30;89.50;;;;;;4950585;28;94934;-45
2023/09/12 09:36:05;;;;;;;110.43;59.60;;;22.30;88.90;;;;;;4949264;28;95331;-46
2023/09/12 09:38:31;;;;;;;112.55;61.63;;;22.30;88.20;;;;;;4957049;28;94842;-45
2023/09/12 09:40:57;;;;;;;109.45;58.65;;;22.40;87.50;;;;;;4948526;28;98031;-45
2023/09/12 09:43:24;;;;;;;110.70;58.05;;;22.40;88.10;;;;;;4953929;28;94898;-45
2023/09/12 09:45:50;;;;;;;108.78;58.10;;;22.50;88.20;;;;;;4948166;28;96844;-45
2023/09/12 09:48:26;;;;;;;107.63;57.67;;;22.60;88.10;;;;;;4949525;28;99633;-45
2023/09/12 09:50:53;;;;;;;108.20;58.17;;;22.70;87.80;;;;;;4959542;28;94979;-46
2023/09/12 09:53:26;;;;;;;107.45;57.28;;;22.70;88.20;;;;;;4953810;28;95209;-46
2023/09/12 09:55:51;;;;;;;108.68;57.83;;;22.80;88.00;;;;;;4950816;28;97632;-45
2023/09/12 09:58:17;;;;;;;109.05;58.47;;;22.80;87.00;;;;;;4954199;28;94934;-46
2023/09/12 10:00:43;;;;;;;110.13;58.85;;;22.90;86.10;;;;;;4950765;28;95996;-46
2023/09/12 10:03:10;;;;;;;110.47;59.05;;;22.90;85.90;;;;;;4955975;28;95292;-45
2023/09/12 10:05:37;;;;;;;111.22;58.75;;;22.90;85.80;;;;;;4951718;28;96268;-44
2023/09/12 10:08:09;;;;;;;110.00;58.83;;;22.90;85.90;;;;;;4952563;28;95137;-47
2023/09/12 10:10:35;;;;;;;107.78;56.97;;;23.00;85.80;;;;;;4928763;28;96228;-45
2023/09/12 10:13:03;;;;;;;110.40;58.13;;;23.00;87.10;;;;;;4955074;28;94422;-46
2023/09/12 10:15:30;;;;;;;108.00;57.55;;;23.00;86.10;;;;;;4950146;28;94688;-45
2023/09/12 10:18:03;;;;;;;108.57;58.50;;;23.00;84.50;;;;;;4957029;28;95070;-45
2023/09/12 10:20:48;;;;;;;108.97;58.28;;;23.00;85.00;;;;;;4951465;28;98310;-45
2023/09/12 10:23:37;;;;;;;109.22;57.97;;;23.10;84.90;;;;;;4948020;28;97403;-45
2023/09/12 10:26:04;;;;;;;107.03;57.05;;;23.10;84.80;;;;;;4950218;28;94768;-45
2023/09/12 10:28:30;;;;;;;107.18;57.20;;;23.10;85.10;;;;;;4951946;28;95713;-44
2023/09/12 10:31:00;;;;;;;107.95;56.83;;;23.20;85.80;;;;;;4948784;28;99204;-45
2023/09/12 10:33:31;;;;;;;107.90;57.25;;;23.20;85.80;;;;;;4954034;28;96676;-45
2023/09/12 10:35:58;;;;;;;107.53;57.25;;;23.20;84.20;;;;;;4950173;28;96527;-45
2023/09/12 10:38:28;;;;;;;107.35;56.83;;;23.20;84.90;;;;;;4957280;28;94378;-44
2023/09/12 10:40:55;;;;;;;108.22;57.40;;;23.20;85.00;;;;;;4949104;28;95395;-45
2023/09/12 10:43:23;;;;;;;107.97;57.63;;;23.20;84.70;;;;;;4952029;28;95386;-44
2023/09/12 10:45:51;;;;;;;107.63;57.35;;;23.30;83.70;;;;;;4951707;28;97461;-45
2023/09/12 10:48:17;;;;;;;107.20;57.03;;;23.20;84.50;;;;;;4956460;28;95293;-45
2023/09/12 10:50:44;;;;;;;107.05;57.10;;;23.30;84.50;;;;;;4954348;28;95658;-46
2023/09/12 10:53:15;;;;;;;108.30;57.55;;;23.30;84.90;;;;;;4948176;28;96489;-45
2023/09/12 10:55:41;;;;;;;108.38;56.85;;;23.30;84.60;;;;;;4953231;28;96334;-44
2023/09/12 10:58:10;;;;;;;108.40;57.55;;;23.30;83.70;;;;;;4947289;28;96654;-46
2023/09/12 11:00:38;;;;;;;107.10;56.88;;;23.40;83.60;;;;;;4950346;28;95494;-45
2023/09/12 11:03:29;;;;;;;108.13;57.38;;;23.40;84.20;;;;;;4932733;28;95102;-45
2023/09/12 11:05:55;;;;;;;106.88;56.83;;;23.40;83.30;;;;;;4947324;28;95383;-45
2023/09/12 11:08:22;;;;;;;107.32;57.17;;;23.40;83.70;;;;;;4951433;28;95314;-44
2023/09/12 11:11:22;;;;;;;108.50;57.25;;;23.50;84.30;;;;;;4947231;28;97047;-45
2023/09/12 11:14:07;;;;;;;108.13;57.58;;;23.50;82.90;;;;;;4945276;28;99678;-44
2023/09/12 11:16:33;;;;;;;107.40;57.22;;;23.50;82.80;;;;;;4945524;28;94742;-45
2023/09/12 11:19:26;;;;;;;108.25;57.63;;;23.60;82.50;;;;;;4950502;28;98296;-45
2023/09/12 11:21:54;;;;;;;109.68;57.50;;;23.60;81.90;;;;;;4944031;28;94987;-45
2023/09/12 11:24:20;;;;;;;107.57;57.17;;;23.60;82.10;;;;;;4952862;28;94971;-45
2023/09/12 11:26:55;;;;;;;107.72;57.47;;;23.60;82.50;;;;;;4950718;28;96172;-45
2023/09/12 11:29:22;;;;;;;108.43;57.75;;;23.70;81.90;;;;;;4949229;28;95084;-46
2023/09/12 11:31:57;;;;;;;108.47;57.50;;;23.70;82.30;;;;;;4950823;28;94717;-45
2023/09/12 11:34:26;;;;;;;108.65;57.40;;;23.70;82.50;;;;;;4944670;28;96860;-47
2023/09/12 11:37:00;;;;;;;107.78;57.47;;;23.70;81.50;;;;;;4951325;28;96953;-45
2023/09/12 11:39:29;;;;;;;107.50;57.35;;;23.70;81.80;;;;;;4944908;28;95135;-45
2023/09/12 11:41:59;;;;;;;108.22;57.38;;;23.70;82.20;;;;;;4951272;28;94719;-45
2023/09/12 11:44:26;;;;;;;108.03;57.25;;;23.80;81.00;;;;;;4952905;28;94674;-45
2023/09/12 11:46:53;;;;;;;109.32;57.75;;;23.80;80.60;;;;;;4943240;28;95528;-46
2023/09/12 11:49:19;;;;;;;108.10;57.70;;;23.80;80.60;;;;;;4934309;28;94837;-46
2023/09/12 11:51:52;;;;;;;109.32;58.00;;;23.90;81.30;;;;;;4944375;28;96077;-45
2023/09/12 11:54:20;;;;;;;108.38;57.28;;;23.90;81.30;;;;;;4952138;28;94564;-45
2023/09/12 11:56:49;;;;;;;109.15;58.03;;;24.00;81.30;;;;;;4947816;28;95474;-45
2023/09/12 11:59:18;;;;;;;109.40;57.90;;;24.10;79.10;;;;;;4949774;28;97283;-45
2023/09/12 12:01:45;;;;;;;109.18;58.00;;;24.10;78.80;;;;;;4949567;28;98003;-44
2023/09/12 12:04:11;;;;;;;108.93;57.83;;;24.10;79.10;;;;;;4945371;28;94909;-45
2023/09/12 12:06:36;;;;;;;109.43;58.30;;;24.10;78.50;;;;;;4949214;28;95818;-44
2023/09/12 12:09:04;;;;;;;109.07;57.92;;;24.10;79.00;;;;;;4948311;28;96017;-45
2023/09/12 12:11:31;;;;;;;108.45;57.83;;;24.10;78.80;;;;;;4952749;28;95243;-45
2023/09/12 12:13:56;;;;;;;109.72;58.40;;;24.10;80.00;;;;;;4949628;28;97268;-45
2023/09/12 12:16:22;;;;;;;109.07;58.30;;;24.10;79.60;;;;;;4953460;28;95056;-45
2023/09/12 12:18:48;;;;;;;109.65;58.25;;;24.20;80.00;;;;;;4947664;28;94822;-47